Time;durP1;ratioP1;P1;durP2;ratioP2;P2;SDS_P1;SDS_P2;PMS_P1;PMS_P2;Temp;Humidity;BMP_temperature;BMP_pressure;BME280_temperature;BME280_humidity;BME280_pressure;Samples;Min_cycle;Max_cycle;Signal;HPM_P1;HPM_P2
2023/01/09 00:01:59;;;;;;;;;;;;;;;25.24;33.56;95393.53;4993582;28;1733;-74
2023/01/09 00:04:24;;;;;;;;;;;;;;;25.25;33.85;95387.94;5000158;28;1906;-74
2023/01/09 00:06:52;;;;;;;;;;;;;;;25.25;33.53;95382.56;5010361;28;2834;-74
2023/01/09 00:09:21;;;;;;;;;;;;;;;25.25;33.97;95387.94;5012865;28;1772;-75
2023/01/09 00:11:47;;;;;;;;;;;;;;;25.23;33.68;95386.53;4995521;28;1717;-78
2023/01/09 00:14:13;;;;;;;;;;;;;;;25.28;33.84;95390.16;4988206;28;1576;-74
2023/01/09 00:16:38;;;;;;;;;;;;;;;25.30;34.05;95388.09;4992012;28;1695;-76
2023/01/09 00:19:03;;;;;;;;;;;;;;;25.29;34.06;95391.78;4994240;28;1667;-77
2023/01/09 00:21:28;;;;;;;;;;;;;;;25.32;34.07;95390.53;4987241;28;1505;-76
2023/01/09 00:23:54;;;;;;;;;;;;;;;25.32;33.95;95377.91;5004906;28;1906;-75
2023/01/09 00:26:19;;;;;;;;;;;;;;;25.34;34.10;95381.19;4982315;28;1678;-75
2023/01/09 00:28:45;;;;;;;;;;;;;;;25.34;34.31;95375.84;4993755;28;1569;-76
2023/01/09 00:31:10;;;;;;;;;;;;;;;25.35;34.10;95373.97;4998801;28;1543;-76
2023/01/09 00:33:49;;;;;;;;;;;;;;;25.35;34.39;95380.16;5006710;28;1665;-76
2023/01/09 00:36:14;;;;;;;;;;;;;;;25.34;34.43;95381.19;4996049;28;1651;-78
2023/01/09 00:38:40;;;;;;;;;;;;;;;25.36;34.47;95378.31;4989782;28;1652;-76
2023/01/09 00:41:06;;;;;;;;;;;;;;;25.35;34.70;95385.50;4998132;28;1579;-77
2023/01/09 00:43:34;;;;;;;;;;;;;;;25.40;34.76;95386.72;4992694;28;1956;-77
2023/01/09 00:46:01;;;;;;;;;;;;;;;25.40;34.65;95376.78;4999669;28;1732;-76
2023/01/09 00:48:28;;;;;;;;;;;;;;;25.42;34.60;95379.25;4987514;28;1709;-76
2023/01/09 00:50:54;;;;;;;;;;;;;;;25.43;34.83;95370.16;4987986;28;1692;-76
2023/01/09 00:53:22;;;;;;;;;;;;;;;25.44;34.88;95377.97;4996020;28;1448;-76
2023/01/09 00:55:47;;;;;;;;;;;;;;;25.44;35.06;95369.09;5010844;28;1727;-76
2023/01/09 00:58:13;;;;;;;;;;;;;;;25.45;35.01;95376.13;4994307;28;1612;-78
2023/01/09 01:00:38;;;;;;;;;;;;;;;25.45;35.26;95374.25;4983866;28;1739;-74
2023/01/09 01:03:03;;;;;;;;;;;;;;;25.46;35.10;95375.88;4996306;28;1934;-77
2023/01/09 01:08:13;;;;;;;;;;;;;;;25.45;35.27;95374.25;4994478;28;1571;-78
2023/01/09 01:10:39;;;;;;;;;;;;;;;25.45;35.71;95381.50;5001350;28;1580;-77
2023/01/09 01:13:05;;;;;;;;;;;;;;;25.44;35.52;95377.97;4987244;28;1583;-75
2023/01/09 01:15:30;;;;;;;;;;;;;;;25.44;35.62;95369.91;4994601;28;1659;-76
2023/01/09 01:17:56;;;;;;;;;;;;;;;25.44;35.54;95380.66;5004152;28;1751;-77
2023/01/09 01:20:21;;;;;;;;;;;;;;;25.46;35.62;95364.31;4983645;28;1607;-76
2023/01/09 01:22:47;;;;;;;;;;;;;;;25.44;35.58;95367.22;4974553;28;1714;-77
2023/01/09 01:25:13;;;;;;;;;;;;;;;25.44;35.81;95353.78;4997794;28;1922;-76
2023/01/09 01:27:39;;;;;;;;;;;;;;;25.44;35.48;95353.78;4990588;28;1473;-76
2023/01/09 01:30:05;;;;;;;;;;;;;;;25.45;35.78;95360.00;4992309;28;1686;-75
2023/01/09 01:32:31;;;;;;;;;;;;;;;25.43;35.71;95351.34;4992845;28;1720;-74
2023/01/09 01:34:56;;;;;;;;;;;;;;;25.44;35.80;95355.66;4982057;28;1678;-76
2023/01/09 01:37:22;;;;;;;;;;;;;;;25.44;36.03;95356.47;4999491;28;1643;-76
2023/01/09 01:39:47;;;;;;;;;;;;;;;25.43;35.96;95351.34;4996618;28;1540;-76
2023/01/09 01:42:13;;;;;;;;;;;;;;;25.43;35.94;95354.03;4994543;28;1723;-76
2023/01/09 01:44:59;;;;;;;;;;;;;;;25.42;35.93;95345.16;4989719;28;1970;-72
2023/01/09 01:47:30;;;;;;;;;;;;;;;25.40;35.82;95343.75;4986361;28;1704;-75
2023/01/09 01:49:56;;;;;;;;;;;;;;;25.42;36.05;95347.84;4992139;28;1455;-75
2023/01/09 01:52:22;;;;;;;;;;;;;;;25.40;35.89;95339.19;4990244;28;1620;-76
2023/01/09 01:54:48;;;;;;;;;;;;;;;25.40;35.97;95344.56;4991767;28;1586;-75
2023/01/09 01:57:13;;;;;;;;;;;;;;;25.40;35.95;95333.00;5012734;28;1821;-75
2023/01/09 01:59:38;;;;;;;;;;;;;;;25.44;36.02;95326.94;4991634;28;1492;-73
2023/01/09 02:02:04;;;;;;;;;;;;;;;25.40;35.96;95323.06;4997595;28;1456;-74
2023/01/09 02:04:32;;;;;;;;;;;;;;;25.39;35.79;95316.06;4991519;28;1902;-74
2023/01/09 02:06:58;;;;;;;;;;;;;;;25.38;35.76;95318.97;4991953;28;1624;-74
2023/01/09 02:09:25;;;;;;;;;;;;;;;25.42;35.92;95317.47;4981350;28;1657;-74
2023/01/09 02:11:55;;;;;;;;;;;;;;;25.41;35.88;95318.50;4992567;28;1863;-74
2023/01/09 02:14:21;;;;;;;;;;;;;;;25.41;36.05;95313.16;5004923;28;1657;-74
2023/01/09 02:16:58;;;;;;;;;;;;;;;25.43;35.87;95311.06;4990907;28;1608;-73
2023/01/09 02:19:24;;;;;;;;;;;;;;;25.42;36.15;95304.88;4983856;28;1685;-73
2023/01/09 02:21:58;;;;;;;;;;;;;;;25.41;36.20;95300.53;4987185;28;1401;-73
2023/01/09 02:24:35;;;;;;;;;;;;;;;25.42;35.92;95299.50;4991920;28;1902;-73
2023/01/09 02:27:01;;;;;;;;;;;;;;;25.44;35.93;95299.25;4995062;28;1561;-73
2023/01/09 02:29:29;;;;;;;;;;;;;;;25.47;35.77;95301.47;5010735;28;1700;-74
2023/01/09 02:32:09;;;;;;;;;;;;;;;25.48;36.08;95292.41;5001351;28;1653;-73
2023/01/09 02:34:40;;;;;;;;;;;;;;;25.48;36.23;95298.56;5007145;28;1648;-73
2023/01/09 02:37:16;;;;;;;;;;;;;;;25.49;35.85;95302.06;4994077;28;2143;-73
2023/01/09 02:39:47;;;;;;;;;;;;;;;25.47;35.89;95298.78;4995103;28;1532;-74
2023/01/09 02:42:31;;;;;;;;;;;;;;;25.47;35.77;95290.72;4987016;28;1732;-74
2023/01/09 02:44:57;;;;;;;;;;;;;;;25.45;35.96;95290.97;5000873;28;1906;-75
2023/01/09 02:47:22;;;;;;;;;;;;;;;25.44;36.29;95294.69;4995332;28;1592;-77
2023/01/09 02:49:47;;;;;;;;;;;;;;;25.46;36.14;95297.16;5008825;28;1566;-75
2023/01/09 02:52:22;;;;;;;;;;;;;;;25.45;36.16;95290.97;4998067;28;1571;-74
2023/01/09 02:54:59;;;;;;;;;;;;;;;25.46;36.20;95299.84;4985947;28;1719;-69
2023/01/09 02:57:37;;;;;;;;;;;;;;;25.47;36.16;95301.47;4995233;28;1734;-68
2023/01/09 03:00:23;;;;;;;;;;;;;;;25.47;36.31;95299.63;4995016;28;1443;-70
2023/01/09 03:02:48;;;;;;;;;;;;;;;25.49;36.37;95294.00;4978439;28;1752;-70
2023/01/09 03:05:22;;;;;;;;;;;;;;;25.51;35.97;95300.00;4994285;28;1959;-69
2023/01/09 03:07:48;;;;;;;;;;;;;;;25.50;35.80;95292.97;4996445;28;1468;-69
2023/01/09 03:10:17;;;;;;;;;;;;;;;25.49;36.15;95291.34;5010803;28;1424;-68
2023/01/09 03:12:44;;;;;;;;;;;;;;;25.47;35.89;95286.19;5001961;28;1644;-68
2023/01/09 03:15:11;;;;;;;;;;;;;;;25.51;36.24;95294.63;4999543;28;1642;-69
2023/01/09 03:17:38;;;;;;;;;;;;;;;25.53;35.82;95289.84;4984730;28;1646;-70
2023/01/09 03:20:06;;;;;;;;;;;;;;;25.50;36.06;95285.75;4985516;28;1499;-69
2023/01/09 03:22:31;;;;;;;;;;;;;;;25.51;36.06;95283.88;4994253;28;1522;-68
2023/01/09 03:24:56;;;;;;;;;;;;;;;25.49;35.81;95285.97;5004570;28;1907;-68
2023/01/09 03:27:22;;;;;;;;;;;;;;;25.49;36.24;95294.00;4988411;28;1685;-70
2023/01/09 03:29:47;;;;;;;;;;;;;;;25.50;36.26;95295.66;4988303;28;1718;-69
2023/01/09 03:32:12;;;;;;;;;;;;;;;25.53;35.95;95295.22;4981081;28;1571;-70
2023/01/09 03:34:37;;;;;;;;;;;;;;;25.52;35.98;95293.56;5007360;28;1745;-71
2023/01/09 03:37:03;;;;;;;;;;;;;;;25.54;36.10;95296.84;4992842;28;1640;-71
2023/01/09 03:39:29;;;;;;;;;;;;;;;25.49;36.34;95296.69;4984289;28;1771;-71
2023/01/09 03:41:54;;;;;;;;;;;;;;;25.50;36.37;95292.97;5025325;28;1748;-71
2023/01/09 03:44:19;;;;;;;;;;;;;;;25.53;36.34;95298.72;4997346;28;1968;-70
2023/01/09 03:46:45;;;;;;;;;;;;;;;25.54;36.20;95296.84;4992130;28;1740;-71
2023/01/09 03:49:10;;;;;;;;;;;;;;;25.55;36.38;95295.78;4994270;28;1435;-71
2023/01/09 03:51:35;;;;;;;;;;;;;;;25.57;35.94;95299.06;5014999;28;1640;-71
2023/01/09 03:54:01;;;;;;;;;;;;;;;25.54;36.14;95304.91;4993466;28;1657;-71
2023/01/09 03:56:26;;;;;;;;;;;;;;;25.53;36.02;95297.91;4995440;28;1750;-71
2023/01/09 03:58:52;;;;;;;;;;;;;;;25.51;36.22;95297.31;4995367;28;1664;-71
2023/01/09 04:01:17;;;;;;;;;;;;;;;25.54;36.04;95296.84;4999181;28;1688;-70
2023/01/09 04:03:43;;;;;;;;;;;;;;;25.38;30.42;95297.50;4989956;28;1965;-69
2023/01/09 04:06:08;;;;;;;;;;;;;;;23.13;26.55;95292.19;5000876;28;1413;-69
2023/01/09 04:08:33;;;;;;;;;;;;;;;23.20;30.24;95294.03;5005086;28;1672;-72
2023/01/09 04:10:58;;;;;;;;;;;;;;;23.76;nan;95295.94;4992904;28;1781;-70
2023/01/09 04:13:24;;;;;;;;;;;;;;;24.13;31.72;95291.47;4983765;28;1585;-68
2023/01/09 04:15:49;;;;;;;;;;;;;;;22.32;22.14;95282.03;4994780;28;1706;-71
2023/01/09 04:18:14;;;;;;;;;;;;;;;20.83;23.41;95291.16;4974358;28;903;-68
2023/01/09 04:20:40;;;;;;;;;;;;;;;19.88;24.07;95282.00;4994320;28;1535;-68
2023/01/09 04:23:05;;;;;;;;;;;;;;;19.15;24.31;95283.19;4991659;28;1910;-68
2023/01/09 04:25:30;;;;;;;;;;;;;;;18.67;25.03;95283.69;4983944;28;1732;-69
2023/01/09 04:27:56;;;;;;;;;;;;;;;18.45;25.18;95285.47;5004403;28;1715;-68
2023/01/09 04:30:21;;;;;;;;;;;;;;;18.07;25.20;95277.63;4991518;28;1434;-68
2023/01/09 04:32:46;;;;;;;;;;;;;;;17.72;25.31;95284.41;4993472;28;1464;-68
2023/01/09 04:35:11;;;;;;;;;;;;;;;17.52;26.02;95292.06;4998550;28;1464;-68
2023/01/09 04:37:37;;;;;;;;;;;;;;;17.28;25.85;95285.97;4990686;28;1695;-68
2023/01/09 04:40:09;;;;;;;;;;;;;;;17.05;25.75;95299.22;4992646;28;1583;-68
2023/01/09 04:42:35;;;;;;;;;;;;;;;16.91;25.90;95293.84;5024560;28;1638;-68
2023/01/09 04:45:00;;;;;;;;;;;;;;;16.92;26.73;95285.72;4992844;28;1910;-75
2023/01/09 04:47:25;;;;;;;;;;;;;;;17.77;29.09;95277.56;4985665;28;1495;-70
2023/01/09 04:49:51;;;;;;;;;;;;;;;18.91;29.08;95276.41;5002035;28;2319;-70
2023/01/09 04:52:16;;;;;;;;;;;;;;;19.77;28.88;95269.22;4999844;28;1655;-69
2023/01/09 04:54:41;;;;;;;;;;;;;;;20.40;28.36;95270.00;4995843;28;1784;-74
2023/01/09 04:57:07;;;;;;;;;;;;;;;20.85;28.72;95275.75;4992485;28;1578;-70
2023/01/09 04:59:32;;;;;;;;;;;;;;;21.28;29.09;95272.78;4985962;28;1553;-71
2023/01/09 05:01:58;;;;;;;;;;;;;;;21.63;28.96;95267.31;4982569;28;1430;-69
2023/01/09 05:04:23;;;;;;;;;;;;;;;21.87;28.92;95265.03;4990990;28;1898;-68
2023/01/09 05:06:49;;;;;;;;;;;;;;;21.46;27.32;95263.38;4991405;28;1615;-69
2023/01/09 05:09:14;;;;;;;;;;;;;;;21.15;28.44;95271.94;4990274;28;1600;-69
2023/01/09 05:11:39;;;;;;;;;;;;;;;21.36;29.01;95262.94;4990998;28;1524;-68
2023/01/09 05:14:04;;;;;;;;;;;;;;;21.66;29.14;95266.03;5000322;28;1725;-69
2023/01/09 05:16:30;;;;;;;;;;;;;;;21.88;29.08;95258.63;4992641;28;1694;-69
2023/01/09 05:18:56;;;;;;;;;;;;;;;22.06;29.18;95264.19;4992526;28;819;-70
2023/01/09 05:21:24;;;;;;;;;;;;;;;22.20;29.09;95273.03;4981508;28;1707;-68
2023/01/09 05:23:50;;;;;;;;;;;;;;;22.35;29.09;95278.13;4989138;28;1891;-68
2023/01/09 05:26:15;;;;;;;;;;;;;;;22.45;29.02;95275.81;4990407;28;827;-71
2023/01/09 05:28:40;;;;;;;;;;;;;;;22.54;29.03;95287.09;4990386;28;886;-69
2023/01/09 05:31:05;;;;;;;;;;;;;;;22.62;28.86;95282.31;4989653;28;1123;-70
2023/01/09 05:33:31;;;;;;;;;;;;;;;22.71;28.98;95282.09;4981132;28;1013;-69
2023/01/09 05:35:56;;;;;;;;;;;;;;;22.76;28.81;95276.94;4988900;28;1551;-70
2023/01/09 05:38:21;;;;;;;;;;;;;;;22.81;28.89;95277.94;5021473;28;1488;-69
2023/01/09 05:40:46;;;;;;;;;;;;;;;22.86;28.84;95270.09;4990229;28;831;-69
2023/01/09 05:43:12;;;;;;;;;;;;;;;22.93;28.86;95272.72;4985845;28;1968;-69
2023/01/09 05:45:37;;;;;;;;;;;;;;;22.97;28.99;95274.00;4983418;28;1306;-69
2023/01/09 05:48:02;;;;;;;;;;;;;;;23.01;28.98;95266.34;4990361;28;922;-69
2023/01/09 05:50:28;;;;;;;;;;;;;;;23.04;29.02;95268.59;4990035;28;895;-69
2023/01/09 05:52:53;;;;;;;;;;;;;;;23.08;28.89;95270.63;4988565;28;1498;-69
2023/01/09 05:55:18;;;;;;;;;;;;;;;23.12;29.08;95266.47;4981334;28;1495;-71
2023/01/09 05:57:44;;;;;;;;;;;;;;;23.16;29.00;95266.06;4991832;28;981;-67
2023/01/09 06:00:09;;;;;;;;;;;;;;;23.20;28.88;95259.25;4991753;28;910;-67
2023/01/09 06:02:35;;;;;;;;;;;;;;;23.25;28.86;95262.06;4990543;28;1320;-69
2023/01/09 06:05:00;;;;;;;;;;;;;;;23.28;28.79;95272.34;5023103;28;1905;-68
2023/01/09 06:07:25;;;;;;;;;;;;;;;23.31;28.97;95255.88;4981691;28;1240;-68
2023/01/09 06:09:50;;;;;;;;;;;;;;;23.34;28.86;95255.44;4991542;28;863;-69
2023/01/09 06:12:15;;;;;;;;;;;;;;;23.38;29.03;95256.63;4991070;28;808;-68
2023/01/09 06:14:41;;;;;;;;;;;;;;;23.40;29.14;95251.09;4991374;28;891;-68
2023/01/09 06:17:06;;;;;;;;;;;;;;;23.44;28.97;95249.59;4989011;28;930;-72
2023/01/09 06:19:31;;;;;;;;;;;;;;;23.46;28.98;95252.88;4983660;28;1319;-68
2023/01/09 06:21:57;;;;;;;;;;;;;;;23.48;28.92;95248.94;4991180;28;1155;-68
2023/01/09 06:24:22;;;;;;;;;;;;;;;23.52;28.94;95246.66;5022900;28;1914;-68
2023/01/09 06:26:47;;;;;;;;;;;;;;;23.56;28.95;95251.38;4991676;28;799;-69
2023/01/09 06:29:13;;;;;;;;;;;;;;;23.57;28.96;95260.22;4982626;28;956;-70
2023/01/09 06:31:39;;;;;;;;;;;;;;;23.61;29.10;95252.56;4989590;28;1204;-70
2023/01/09 06:34:04;;;;;;;;;;;;;;;23.63;28.92;95253.16;4991500;28;799;-68
2023/01/09 06:36:29;;;;;;;;;;;;;;;23.65;28.97;95251.06;4991142;28;1296;-70
2023/01/09 06:38:55;;;;;;;;;;;;;;;23.66;28.94;95237.47;4991491;28;784;-69
2023/01/09 06:41:20;;;;;;;;;;;;;;;23.68;28.79;95253.31;4982312;28;1141;-69
2023/01/09 06:43:45;;;;;;;;;;;;;;;23.71;28.96;95255.59;4991112;28;1886;-69
2023/01/09 06:46:10;;;;;;;;;;;;;;;23.71;28.91;95244.88;5023151;28;1373;-69
2023/01/09 06:48:36;;;;;;;;;;;;;;;23.73;29.08;95243.59;4991300;28;898;-70
2023/01/09 06:51:01;;;;;;;;;;;;;;;23.75;28.80;95246.06;4991089;28;1266;-69
2023/01/09 06:53:26;;;;;;;;;;;;;;;23.76;28.94;95247.72;4981951;28;1141;-69
2023/01/09 06:55:52;;;;;;;;;;;;;;;23.78;28.85;95251.00;4991815;28;800;-70
2023/01/09 06:58:17;;;;;;;;;;;;;;;23.78;28.99;95251.00;4989816;28;1232;-71
2023/01/09 07:00:42;;;;;;;;;;;;;;;23.78;28.97;95246.44;5022868;28;1566;-70
2023/01/09 07:03:08;;;;;;;;;;;;;;;23.81;28.96;95239.84;4986003;28;1927;-70
2023/01/09 07:05:38;;;;;;;;;;;;;;;23.82;28.99;95230.75;5018774;28;1361;-70
2023/01/09 07:08:03;;;;;;;;;;;;;;;23.83;29.04;95232.41;4991593;28;787;-69
2023/01/09 07:10:29;;;;;;;;;;;;;;;23.84;28.88;95233.22;4991364;28;914;-70
2023/01/09 07:12:54;;;;;;;;;;;;;;;23.85;29.01;95222.28;4991048;28;862;-70
2023/01/09 07:15:20;;;;;;;;;;;;;;;23.86;29.07;95226.59;4981796;28;968;-69
2023/01/09 07:17:45;;;;;;;;;;;;;;;23.89;28.95;95226.16;4991068;28;796;-68
2023/01/09 07:20:10;;;;;;;;;;;;;;;23.90;28.93;95230.47;4991208;28;866;-69
2023/01/09 07:22:36;;;;;;;;;;;;;;;23.93;28.71;95234.56;5023874;28;1414;-70
2023/01/09 07:25:01;;;;;;;;;;;;;;;23.94;29.02;95244.25;5026103;28;1898;-70
2023/01/09 07:27:26;;;;;;;;;;;;;;;23.95;28.79;95246.72;4985357;28;1137;-70
2023/01/09 07:29:52;;;;;;;;;;;;;;;23.96;28.97;95251.03;4992887;28;1304;-67
2023/01/09 07:32:17;;;;;;;;;;;;;;;23.98;29.02;95245.44;4994638;28;894;-69
2023/01/09 07:34:43;;;;;;;;;;;;;;;23.99;28.77;95242.56;4992850;28;1228;-69
2023/01/09 07:37:08;;;;;;;;;;;;;;;24.00;28.83;95233.47;4988099;28;1297;-69
2023/01/09 07:39:33;;;;;;;;;;;;;;;24.01;28.70;95245.81;4990067;28;941;-71
2023/01/09 07:41:59;;;;;;;;;;;;;;;24.02;28.71;95236.75;4994564;28;822;-69
2023/01/09 07:44:24;;;;;;;;;;;;;;;24.04;29.02;95252.59;4993975;28;1915;-68
2023/01/09 07:46:49;;;;;;;;;;;;;;;24.05;28.68;95245.38;4993118;28;1303;-70
2023/01/09 07:49:14;;;;;;;;;;;;;;;24.06;28.91;95245.16;4985438;28;1121;-70
2023/01/09 07:51:42;;;;;;;;;;;;;;;24.07;28.84;95254.84;4994072;28;869;-69
2023/01/09 07:54:07;;;;;;;;;;;;;;;24.08;28.97;95252.97;4994375;28;826;-69
2023/01/09 07:56:32;;;;;;;;;;;;;;;24.10;28.81;95253.56;4992961;28;1367;-70
2023/01/09 07:58:58;;;;;;;;;;;;;;;24.11;28.97;95260.59;4993885;28;849;-70
2023/01/09 08:01:23;;;;;;;;;;;;;;;24.12;28.83;95256.88;4984805;28;1032;-69
2023/01/09 08:03:48;;;;;;;;;;;;;;;24.12;28.98;95257.69;5024951;28;1894;-69
2023/01/09 08:06:13;;;;;;;;;;;;;;;24.13;29.09;95266.53;4993736;28;988;-69
2023/01/09 08:08:39;;;;;;;;;;;;;;;24.14;29.04;95268.19;4994051;28;918;-68
2023/01/09 08:11:04;;;;;;;;;;;;;;;24.14;28.70;95270.88;4989623;28;1204;-70
2023/01/09 08:13:29;;;;;;;;;;;;;;;24.15;29.03;95262.59;4988688;28;1191;-70
2023/01/09 08:15:55;;;;;;;;;;;;;;;24.14;28.98;95271.69;4993884;28;826;-70
2023/01/09 08:18:20;;;;;;;;;;;;;;;24.17;29.04;95270.44;4993652;28;910;-70
2023/01/09 08:20:47;;;;;;;;;;;;;;;24.16;29.04;95271.44;4993374;28;881;-69
2023/01/09 08:23:12;;;;;;;;;;;;;;;24.17;29.04;95267.75;4984113;28;1898;-69
2023/01/09 08:25:37;;;;;;;;;;;;;;;24.18;28.88;95262.16;4993582;28;863;-69
2023/01/09 08:28:03;;;;;;;;;;;;;;;24.19;29.13;95269.16;4993246;28;818;-69
2023/01/09 08:30:28;;;;;;;;;;;;;;;24.20;29.03;95264.63;4993532;28;1103;-69
2023/01/09 08:32:53;;;;;;;;;;;;;;;24.20;29.08;95264.63;4993161;28;883;-70
2023/01/09 08:35:19;;;;;;;;;;;;;;;24.22;28.88;95262.53;4981596;28;1445;-69
2023/01/09 08:37:45;;;;;;;;;;;;;;;24.22;28.97;95257.19;4993513;28;826;-70
2023/01/09 08:40:11;;;;;;;;;;;;;;;24.22;29.06;95257.19;4993334;28;953;-69
2023/01/09 08:48:04;;;;;;;;;;;;;;;24.22;29.12;95263.34;4992822;28;1163;-69
2023/01/09 08:50:29;;;;;;;;;;;;;;;24.23;28.75;95258.81;4993232;28;878;-69
2023/01/09 08:52:55;;;;;;;;;;;;;;;24.23;28.95;95248.09;4993257;28;894;-69
2023/01/09 08:55:20;;;;;;;;;;;;;;;24.24;28.95;95241.66;4993084;28;918;-68
2023/01/09 08:57:49;;;;;;;;;;;;;;;24.25;29.03;95251.38;4983404;28;998;-70
2023/01/09 09:00:15;;;;;;;;;;;;;;;24.25;29.04;95246.00;4993485;28;795;-69
2023/01/09 09:02:40;;;;;;;;;;;;;;;24.26;29.09;95239.59;4992746;28;1043;-69
2023/01/09 09:05:06;;;;;;;;;;;;;;;24.26;29.03;95236.91;4990845;28;1911;-69
2023/01/09 09:07:31;;;;;;;;;;;;;;;24.27;28.74;95233.19;4988138;28;1186;-71
2023/01/09 09:09:56;;;;;;;;;;;;;;;24.27;28.90;95235.84;4987212;28;975;-68
2023/01/09 09:12:22;;;;;;;;;;;;;;;24.27;29.06;95224.31;4992634;28;875;-69
2023/01/09 09:17:32;;;;;;;;;;;;;;;24.27;29.10;95218.97;4992885;28;747;-70
2023/01/09 09:19:58;;;;;;;;;;;;;;;24.28;28.76;95225.94;4983092;28;1091;-70
2023/01/09 09:22:23;;;;;;;;;;;;;;;24.29;29.05;95214.19;5024002;28;1290;-69
2023/01/09 09:24:48;;;;;;;;;;;;;;;24.29;29.07;95211.53;4992355;28;1926;-69
2023/01/09 09:27:13;;;;;;;;;;;;;;;24.29;28.93;95204.28;4992112;28;803;-68
2023/01/09 09:29:39;;;;;;;;;;;;;;;24.30;29.03;95203.25;4992553;28;886;-70
2023/01/09 09:32:04;;;;;;;;;;;;;;;24.30;28.85;95195.19;4982917;28;1306;-69
2023/01/09 09:34:29;;;;;;;;;;;;;;;24.31;28.93;95193.34;5023007;28;1327;-69
2023/01/09 09:36:54;;;;;;;;;;;;;;;24.32;29.17;95182.41;4992415;28;825;-69
2023/01/09 09:39:20;;;;;;;;;;;;;;;24.32;29.07;95182.41;4990935;28;1517;-68
2023/01/09 09:44:48;;;;;;;;;;;;;;;24.33;29.10;95162.56;4987518;28;1914;-70
2023/01/09 09:47:32;;;;;;;;;;;;;;;24.33;29.01;95156.41;4990642;28;1198;-70
2023/01/09 09:50:00;;;;;;;;;;;;;;;24.32;29.08;95139.50;4991772;28;889;-70
2023/01/09 09:52:44;;;;;;;;;;;;;;;24.33;29.01;95129.59;4990817;28;1247;-69
2023/01/09 09:55:39;;;;;;;;;;;;;;;24.32;29.14;95131.44;4982556;28;1006;-70
2023/01/09 09:58:16;;;;;;;;;;;;;;;24.34;28.96;95128.56;4982167;28;1419;-70
2023/01/09 10:00:41;;;;;;;;;;;;;;;24.34;29.14;95113.28;4992035;28;831;-70
2023/01/09 10:03:11;;;;;;;;;;;;;;;24.36;29.21;95123.75;4991767;28;965;-71
2023/01/09 10:05:39;;;;;;;;;;;;;;;24.37;28.87;95093.25;4980727;28;2100;-69
2023/01/09 10:08:20;;;;;;;;;;;;;;;24.36;28.99;95081.72;4990592;28;1317;-68
2023/01/09 10:10:51;;;;;;;;;;;;;;;24.37;29.04;95077.16;4990278;28;1180;-71
2023/01/09 10:16:20;;;;;;;;;;;;;;;24.37;29.15;95040.44;4986891;28;1117;-70
2023/01/09 10:18:57;;;;;;;;;;;;;;;24.37;29.22;95056.53;4989909;28;944;-70
2023/01/09 10:21:31;;;;;;;;;;;;;;;24.38;29.04;95052.78;4991727;28;820;-69
2023/01/09 10:24:15;;;;;;;;;;;;;;;24.37;29.22;95051.16;4990285;28;1962;-70
2023/01/09 10:26:49;;;;;;;;;;;;;;;24.38;29.06;95030.53;4989823;28;1180;-69
2023/01/09 10:29:14;;;;;;;;;;;;;;;24.38;29.17;95036.69;4980825;28;1448;-69
2023/01/09 10:31:48;;;;;;;;;;;;;;;24.38;29.13;95023.28;4991386;28;1213;-69
2023/01/09 10:34:32;;;;;;;;;;;;;;;24.39;29.04;95016.91;4991318;28;1018;-69
2023/01/09 10:37:07;;;;;;;;;;;;;;;24.39;29.06;95019.59;4991354;28;823;-69
2023/01/09 10:39:32;;;;;;;;;;;;;;;24.39;29.09;95013.38;4980734;28;1200;-69
2023/01/09 10:42:00;;;;;;;;;;;;;;;24.39;29.23;95019.59;4991284;28;915;-69
2023/01/09 10:44:37;;;;;;;;;;;;;;;24.41;29.04;95024.69;4990179;28;1957;-69
2023/01/09 10:47:29;;;;;;;;;;;;;;;24.40;29.18;95006.97;4991122;28;835;-69
2023/01/09 10:49:55;;;;;;;;;;;;;;;24.41;28.99;95006.72;4985447;28;1041;-70
2023/01/09 10:52:24;;;;;;;;;;;;;;;24.42;29.28;94996.84;4986655;28;926;-69
2023/01/09 10:55:10;;;;;;;;;;;;;;;24.42;29.12;95005.72;4991484;28;871;-69
2023/01/09 10:57:52;;;;;;;;;;;;;;;24.42;29.10;95003.03;4984746;28;1193;-71
2023/01/09 11:00:21;;;;;;;;;;;;;;;24.42;29.24;94999.53;4993997;28;1473;-70
2023/01/09 11:02:47;;;;;;;;;;;;;;;24.42;29.13;94997.66;4985586;28;1002;-70
2023/01/09 11:05:19;;;;;;;;;;;;;;;24.43;28.99;94988.59;4995044;28;1898;-70
2023/01/09 11:07:45;;;;;;;;;;;;;;;24.43;29.04;94980.56;4993682;28;1331;-70
2023/01/09 11:10:11;;;;;;;;;;;;;;;24.43;28.96;94971.69;4994832;28;862;-70
2023/01/09 11:12:37;;;;;;;;;;;;;;;24.43;29.11;94964.47;4990731;28;977;-71
2023/01/09 11:15:18;;;;;;;;;;;;;;;24.42;29.13;94952.09;4990113;28;1171;-70
2023/01/09 11:17:44;;;;;;;;;;;;;;;24.44;29.31;94954.53;4992971;28;1320;-71
2023/01/09 11:20:15;;;;;;;;;;;;;;;24.43;29.07;94953.72;4995082;28;906;-70
2023/01/09 11:22:46;;;;;;;;;;;;;;;24.43;29.01;94959.09;4994934;28;814;-68
2023/01/09 11:25:13;;;;;;;;;;;;;;;24.43;29.14;94953.72;4983403;28;1954;-69
2023/01/09 11:27:38;;;;;;;;;;;;;;;24.44;29.15;94943.81;4994910;28;838;-71
2023/01/09 11:30:21;;;;;;;;;;;;;;;24.45;28.82;94945.47;4994667;28;1087;-69
2023/01/09 11:32:46;;;;;;;;;;;;;;;24.43;28.95;94936.84;4994393;28;863;-70
2023/01/09 11:35:31;;;;;;;;;;;;;;;24.43;29.01;94934.16;4989820;28;1280;-71
2023/01/09 11:38:05;;;;;;;;;;;;;;;24.43;29.10;94932.28;4988352;28;1378;-69
2023/01/09 11:40:34;;;;;;;;;;;;;;;24.42;29.18;94933.31;4994328;28;886;-69
2023/01/09 11:43:00;;;;;;;;;;;;;;;24.43;29.21;94920.75;4994593;28;973;-70
2023/01/09 11:45:30;;;;;;;;;;;;;;;24.43;29.09;94934.97;4992894;28;1907;-70
2023/01/09 11:47:56;;;;;;;;;;;;;;;24.43;29.17;94929.59;4982965;28;1248;-69
2023/01/09 11:50:23;;;;;;;;;;;;;;;24.44;29.00;94919.69;4994498;28;909;-69
2023/01/09 11:53:12;;;;;;;;;;;;;;;24.44;28.94;94922.38;4993200;28;1184;-70
2023/01/09 11:55:37;;;;;;;;;;;;;;;24.43;28.98;94910.84;4987049;28;1213;-70
2023/01/09 11:58:03;;;;;;;;;;;;;;;24.44;29.00;94922.38;4989801;28;1011;-70
2023/01/09 12:00:29;;;;;;;;;;;;;;;24.44;28.99;94917.81;4989220;28;1028;-70
2023/01/09 12:03:15;;;;;;;;;;;;;;;24.45;29.07;94918.66;4993774;28;890;-70
2023/01/09 12:05:53;;;;;;;;;;;;;;;24.45;28.91;94908.75;4992335;28;1894;-69
2023/01/09 12:08:42;;;;;;;;;;;;;;;24.44;29.15;94912.44;4992930;28;882;-70
2023/01/09 12:11:10;;;;;;;;;;;;;;;24.45;29.04;94911.41;4981474;28;1192;-70
2023/01/09 12:13:54;;;;;;;;;;;;;;;24.44;29.33;94896.38;4993917;28;866;-70
2023/01/09 12:16:25;;;;;;;;;;;;;;;24.44;29.10;94896.38;4993956;28;899;-70
2023/01/09 12:19:00;;;;;;;;;;;;;;;24.43;29.02;94892.06;4993538;28;796;-70
2023/01/09 12:21:39;;;;;;;;;;;;;;;24.44;29.23;94890.19;4983346;28;1216;-71
2023/01/09 12:24:18;;;;;;;;;;;;;;;24.43;29.12;94889.38;4993449;28;1934;-70
2023/01/09 12:26:44;;;;;;;;;;;;;;;24.44;29.04;94890.19;4993895;28;875;-70
2023/01/09 12:29:09;;;;;;;;;;;;;;;24.43;28.94;94878.66;4992097;28;1193;-69
2023/01/09 12:31:40;;;;;;;;;;;;;;;24.44;29.10;94874.91;4992895;28;1370;-70
2023/01/09 12:34:17;;;;;;;;;;;;;;;24.44;29.12;94880.28;4984186;28;1068;-70
2023/01/09 12:37:03;;;;;;;;;;;;;;;24.43;29.11;94865.25;4993489;28;1284;-69
2023/01/09 12:39:36;;;;;;;;;;;;;;;24.45;29.17;94871.19;4993157;28;907;-69
2023/01/09 12:42:19;;;;;;;;;;;;;;;24.45;29.19;94868.53;4993644;28;863;-70
2023/01/09 12:44:48;;;;;;;;;;;;;;;24.45;29.15;94870.38;4982294;28;1918;-69
2023/01/09 12:47:32;;;;;;;;;;;;;;;24.45;29.09;94860.47;4991577;28;1311;-70
2023/01/09 12:50:16;;;;;;;;;;;;;;;24.44;29.14;94858.81;4993252;28;859;-69
2023/01/09 12:52:46;;;;;;;;;;;;;;;24.43;29.11;94857.19;4993153;28;829;-67
2023/01/09 12:55:14;;;;;;;;;;;;;;;24.44;29.00;94856.13;4987929;28;1005;-68
2023/01/09 12:57:41;;;;;;;;;;;;;;;24.44;29.17;94852.66;4987784;28;1344;-71
2023/01/09 13:00:14;;;;;;;;;;;;;;;24.45;29.12;94846.25;4992951;28;938;-70
2023/01/09 13:02:59;;;;;;;;;;;;;;;24.44;29.06;94844.59;4992725;28;830;-70
2023/01/09 13:05:28;;;;;;;;;;;;;;;24.43;28.98;94848.34;4992961;28;1898;-70
2023/01/09 13:07:55;;;;;;;;;;;;;;;24.44;29.18;94848.09;4983557;28;1159;-71
2023/01/09 13:10:20;;;;;;;;;;;;;;;24.44;29.00;94845.41;4992326;28;1031;-70
2023/01/09 13:12:47;;;;;;;;;;;;;;;24.43;29.21;94835.75;4992899;28;898;-69
2023/01/09 13:15:18;;;;;;;;;;;;;;;24.45;29.13;94832.84;4991479;28;1203;-69
2023/01/09 13:17:49;;;;;;;;;;;;;;;24.45;29.12;94828.28;4987918;28;882;-68
2023/01/09 13:20:32;;;;;;;;;;;;;;;24.45;29.03;94833.66;4986027;28;1233;-69
2023/01/09 13:22:59;;;;;;;;;;;;;;;24.44;29.04;94829.31;4991293;28;1220;-70